Aleksandrov-Gaj, Russia
Current Conditions -  °F | °C
As of 2:00 AM on Friday 28 Nov 2014 (Local Time) from UWSS Reporting Station
Haze Haze  
Wind Chill: 10°   Ceiling: Unl
Heat Index: 10°   Visibility: 2.5mi
Dew Point:   Wind: 2mph
Humidity: 92%   Direction: NA
Pressure: 30.56"   Gusts: NA
Location:  50.15°N, 48.57°E
Report Text: UWSS 272300Z VRB01MPS 4000 BR SCT100 M12/M13 Q1035 120///60 NOSIG RMK QFE764
Loading
Personal Weather Stations






























Interactive Weather Map New forecast layout! Learn more

10-Day Weather Forecast

Advertisements
Track Severe Weather on mobile